Marcolorado — V2EY5 — position and weather

sailwx.info

Track history (hours):
 
Tides and Currents Weather Stations Pressure Air Temp Water Temp Dewpoint Dewpoint Depression Visibility Wind Speed Wind Dir Waves Ship Positions

Marcolorado

Last reported at 2014-Nov-20 10:19 UTC. Time now 2014-Nov-28 15:35 UTC.
Position N 20°09' E 110°01'.
Warning: this ship's position is 8 days out of date.

Length 185 m; draft 6.7 m.

Type: Cargo ship. MMSI: 305599000.

Date/timePositionNaut miles runAvg speedWind from/ knotsBaromVisibWave heightAir tempDewpointWater temp
2014-Nov-20 10:19N 20°09' E 110°01'911.9
2014-Nov-20 09:33N 20°11' E 110°10'2210.2
2014-Nov-20 07:21N 20°14' E 110°34'21312.7
2014-Nov-19 14:33N 22°02' E 113°51'1010.6
2014-Nov-19 13:33N 22°12' E 113°48'1312.9
2014-Nov-19 12:32N 22°25' E 113°46'2411.9
2014-Nov-19 10:32N 22°48' E 113°37'1010.1
2014-Nov-19 09:33N 22°57' E 113°33'7 5.9
2014-Nov-19 08:23N 23°03' E 113°30'0 0.0
2014-Nov-19 07:17N 23°03' E 113°30'0 0.1
2014-Nov-19 06:23N 23°03' E 113°30'0 0.1
2014-Nov-19 05:29N 23°03' E 113°30'0 0.0
2014-Nov-19 04:29N 23°03' E 113°30'0 0.0
2014-Nov-19 03:32N 23°03' E 113°30'0 0.0
2014-Nov-19 01:33N 23°03' E 113°30'0 0.0
2014-Nov-19 00:27N 23°03' E 113°30'0 0.0
2014-Nov-18 23:27N 23°03' E 113°30'0 0.0
2014-Nov-18 22:33N 23°03' E 113°30'0 0.0
2014-Nov-18 21:27N 23°03' E 113°30'0 0.0
2014-Nov-18 20:27N 23°03' E 113°30'0 0.0
2014-Nov-18 19:33N 23°03' E 113°30'0 0.0
2014-Nov-18 18:33N 23°03' E 113°30'0 0.0
2014-Nov-18 17:15N 23°03' E 113°30'0 0.0
2014-Nov-18 16:33N 23°03' E 113°30'0 0.0
2014-Nov-18 15:21N 23°03' E 113°30'0 0.0
2014-Nov-18 13:33N 23°03' E 113°30'0 0.0
2014-Nov-18 12:21N 23°03' E 113°30'0 0.0
2014-Nov-18 10:21N 23°03' E 113°30'0 0.0
2014-Nov-18 09:27N 23°03' E 113°30'0 0.0
2014-Nov-18 08:27N 23°03' E 113°30'0 0.0
2014-Nov-18 07:33N 23°03' E 113°30'0 0.0
2014-Nov-18 06:33N 23°03' E 113°30'0 0.0
2014-Nov-18 05:33N 23°03' E 113°30'3 2.8
2014-Nov-18 04:33N 23°01' E 113°32'9 9.3
2014-Nov-18 03:33N 22°52' E 113°34'1110.9
2014-Nov-18 02:31N 22°42' E 113°41'1211.8
2014-Nov-18 01:28N 22°30' E 113°45'1112.2
2014-Nov-18 00:33N 22°20' E 113°48'1111.3
2014-Nov-17 23:33N 22°08' E 113°48'6 4.4
2014-Nov-17 22:17N 22°05' E 113°53'0 0.1
2014-Nov-17 21:29N 22°05' E 113°53'0 0.1
2014-Nov-17 20:29N 22°05' E 113°53'0 0.0
2014-Nov-17 19:23N 22°05' E 113°53'0 0.0
2014-Nov-17 18:17N 22°05' E 113°53'0 0.0
2014-Nov-17 17:23N 22°05' E 113°53'0 0.0
2014-Nov-17 16:11N 22°05' E 113°53'0 0.0
2014-Nov-17 15:29N 22°05' E 113°53'0 0.0
2014-Nov-17 14:29N 22°05' E 113°53'0 0.0
2014-Nov-17 13:29N 22°05' E 113°53'0 0.0
2014-Nov-17 12:29N 22°05' E 113°53'0 0.0
2014-Nov-17 11:23N 22°05' E 113°53'0 0.0
2014-Nov-17 10:29N 22°05' E 113°53'0 0.0
2014-Nov-17 09:17N 22°05' E 113°53'0 0.1
2014-Nov-17 08:29N 22°05' E 113°53'0 0.0
2014-Nov-17 07:29N 22°05' E 113°53'0 0.1
2014-Nov-17 05:17N 22°05' E 113°53'0 0.0
2014-Nov-17 04:17N 22°05' E 113°53'0 0.0
2014-Nov-17 03:23N 22°05' E 113°53'0 0.0
2014-Nov-17 02:11N 22°05' E 113°53'0 0.1
2014-Nov-17 01:23N 22°05' E 113°53'0 0.0
2014-Nov-16 12:29N 22°05' E 113°53'0 0.0
2014-Nov-16 11:17N 22°05' E 113°53'0 0.1
2014-Nov-16 10:17N 22°05' E 113°53'0 0.0
2014-Nov-16 08:17N 22°05' E 113°53'0 0.1
2014-Nov-16 07:29N 22°05' E 113°53'0 0.0
2014-Nov-16 06:17N 22°05' E 113°53'0 0.0
2014-Nov-16 05:05N 22°05' E 113°53'0 0.2
2014-Nov-16 04:12N 22°05' E 113°53'6 7.8
2014-Nov-16 03:28N 21°59' E 113°52'27312.5
2014-Nov-15 05:32N 23°52' E 118°23'  
2014-Nov-12 07:29N 34°48' E 119°40'1011.4
2014-Nov-12 06:33N 34°45' E 119°28'1 0.5
2014-Nov-12 05:31N 34°44' E 119°28'0 0.0
2014-Nov-12 04:31N 34°44' E 119°28'0 0.0
2014-Nov-12 03:31N 34°44' E 119°28'0 0.0
2014-Nov-12 02:31N 34°44' E 119°28'0 0.0
2014-Nov-12 01:31N 34°44' E 119°28'0 0.0
2014-Nov-12 00:31N 34°44' E 119°28'0 0.0
2014-Nov-11 23:31N 34°44' E 119°28'0 0.0
2014-Nov-11 22:31N 34°44' E 119°28'0 0.0
2014-Nov-11 21:31N 34°44' E 119°28'0 0.0
2014-Nov-11 20:31N 34°44' E 119°28'0 0.0
2014-Nov-11 19:31N 34°44' E 119°28'0 0.0
2014-Nov-11 18:31N 34°44' E 119°28'0 0.0
2014-Nov-11 17:31N 34°44' E 119°28'0 0.0
2014-Nov-11 16:31N 34°44' E 119°28'0 0.0
2014-Nov-11 15:31N 34°44' E 119°28'0 0.0
2014-Nov-11 14:31N 34°44' E 119°28'0 0.0
2014-Nov-11 13:31N 34°44' E 119°28'0 0.0
2014-Nov-11 12:31N 34°44' E 119°28'0 0.0
2014-Nov-11 11:31N 34°44' E 119°28'0 0.0
2014-Nov-11 10:31N 34°44' E 119°28'0 0.0
2014-Nov-11 09:31N 34°44' E 119°28'0 0.0
2014-Nov-11 08:31N 34°44' E 119°28'0 0.0
2014-Nov-11 07:31N 34°44' E 119°28'0 0.0
2014-Nov-11 06:31N 34°44' E 119°28'0 0.1
2014-Nov-11 05:33N 34°44' E 119°28'8 7.9
2014-Nov-11 04:33N 34°47' E 119°37'6 5.8
2014-Nov-11 03:32N 34°51' E 119°42'0 0.1
2014-Nov-11 01:31N 34°51' E 119°42'0 0.0
2014-Nov-11 00:31N 34°51' E 119°42'0 0.1
2014-Nov-10 22:25N 34°51' E 119°42'0 0.0
2014-Nov-10 21:31N 34°51' E 119°42'0 0.1
2014-Nov-10 20:19N 34°51' E 119°42'0 0.2
2014-Nov-10 19:31N 34°51' E 119°42'0 0.1
2014-Nov-10 18:31N 34°51' E 119°42'0 0.0
2014-Nov-10 17:25N 34°51' E 119°42'0 0.0
2014-Nov-10 16:31N 34°51' E 119°42'0 0.0
2014-Nov-10 15:31N 34°51' E 119°42'0 0.0
2014-Nov-10 14:07N 34°51' E 119°42'0 0.0
2014-Nov-10 13:31N 34°51' E 119°42'0 0.1
2014-Nov-10 12:31N 34°51' E 119°42'0 0.1
2014-Nov-10 11:25N 34°51' E 119°42'0 0.1
2014-Nov-10 10:31N 34°51' E 119°42'  
Track history (hours):
 
Tides and Currents Weather Stations Pressure Air Temp Water Temp Dewpoint Dewpoint Depression Visibility Wind Speed Wind Dir Waves Ship Positions

Marcolorado

Last reported at 2014-Nov-20 10:19 UTC. Time now 2014-Nov-28 15:35 UTC.
Position N 20°09' E 110°01'.
Warning: this ship's position is 8 days out of date.

Length 185 m; draft 6.7 m.

Type: Cargo ship. MMSI: 305599000.

Date/timePositionNaut miles runAvg speedWind from/ knotsBaromVisibWave heightAir tempDewpointWater temp
2014-Nov-20 10:19N 20°09' E 110°01'911.9
2014-Nov-20 09:33N 20°11' E 110°10'2210.2
2014-Nov-20 07:21N 20°14' E 110°34'21312.7
2014-Nov-19 14:33N 22°02' E 113°51'1010.6
2014-Nov-19 13:33N 22°12' E 113°48'1312.9
2014-Nov-19 12:32N 22°25' E 113°46'2411.9
2014-Nov-19 10:32N 22°48' E 113°37'1010.1
2014-Nov-19 09:33N 22°57' E 113°33'7 5.9
2014-Nov-19 08:23N 23°03' E 113°30'0 0.0
2014-Nov-19 07:17N 23°03' E 113°30'0 0.1
2014-Nov-19 06:23N 23°03' E 113°30'0 0.1
2014-Nov-19 05:29N 23°03' E 113°30'0 0.0
2014-Nov-19 04:29N 23°03' E 113°30'0 0.0
2014-Nov-19 03:32N 23°03' E 113°30'0 0.0
2014-Nov-19 01:33N 23°03' E 113°30'0 0.0
2014-Nov-19 00:27N 23°03' E 113°30'0 0.0
2014-Nov-18 23:27N 23°03' E 113°30'0 0.0
2014-Nov-18 22:33N 23°03' E 113°30'0 0.0
2014-Nov-18 21:27N 23°03' E 113°30'0 0.0
2014-Nov-18 20:27N 23°03' E 113°30'0 0.0
2014-Nov-18 19:33N 23°03' E 113°30'0 0.0
2014-Nov-18 18:33N 23°03' E 113°30'0 0.0
2014-Nov-18 17:15N 23°03' E 113°30'0 0.0
2014-Nov-18 16:33N 23°03' E 113°30'0 0.0
2014-Nov-18 15:21N 23°03' E 113°30'0 0.0
2014-Nov-18 13:33N 23°03' E 113°30'0 0.0
2014-Nov-18 12:21N 23°03' E 113°30'0 0.0
2014-Nov-18 10:21N 23°03' E 113°30'0 0.0
2014-Nov-18 09:27N 23°03' E 113°30'0 0.0
2014-Nov-18 08:27N 23°03' E 113°30'0 0.0
2014-Nov-18 07:33N 23°03' E 113°30'0 0.0
2014-Nov-18 06:33N 23°03' E 113°30'0 0.0
2014-Nov-18 05:33N 23°03' E 113°30'3 2.8
2014-Nov-18 04:33N 23°01' E 113°32'9 9.3
2014-Nov-18 03:33N 22°52' E 113°34'1110.9
2014-Nov-18 02:31N 22°42' E 113°41'1211.8
2014-Nov-18 01:28N 22°30' E 113°45'1112.2
2014-Nov-18 00:33N 22°20' E 113°48'1111.3
2014-Nov-17 23:33N 22°08' E 113°48'6 4.4
2014-Nov-17 22:17N 22°05' E 113°53'0 0.1
2014-Nov-17 21:29N 22°05' E 113°53'0 0.1
2014-Nov-17 20:29N 22°05' E 113°53'0 0.0
2014-Nov-17 19:23N 22°05' E 113°53'0 0.0
2014-Nov-17 18:17N 22°05' E 113°53'0 0.0
2014-Nov-17 17:23N 22°05' E 113°53'0 0.0
2014-Nov-17 16:11N 22°05' E 113°53'0 0.0
2014-Nov-17 15:29N 22°05' E 113°53'0 0.0
2014-Nov-17 14:29N 22°05' E 113°53'0 0.0
2014-Nov-17 13:29N 22°05' E 113°53'0 0.0
2014-Nov-17 12:29N 22°05' E 113°53'0 0.0
2014-Nov-17 11:23N 22°05' E 113°53'0 0.0
2014-Nov-17 10:29N 22°05' E 113°53'0 0.0
2014-Nov-17 09:17N 22°05' E 113°53'0 0.1
2014-Nov-17 08:29N 22°05' E 113°53'0 0.0
2014-Nov-17 07:29N 22°05' E 113°53'0 0.1
2014-Nov-17 05:17N 22°05' E 113°53'0 0.0
2014-Nov-17 04:17N 22°05' E 113°53'0 0.0
2014-Nov-17 03:23N 22°05' E 113°53'0 0.0
2014-Nov-17 02:11N 22°05' E 113°53'0 0.1
2014-Nov-17 01:23N 22°05' E 113°53'0 0.0
2014-Nov-16 12:29N 22°05' E 113°53'0 0.0
2014-Nov-16 11:17N 22°05' E 113°53'0 0.1
2014-Nov-16 10:17N 22°05' E 113°53'0 0.0
2014-Nov-16 08:17N 22°05' E 113°53'0 0.1
2014-Nov-16 07:29N 22°05' E 113°53'0 0.0
2014-Nov-16 06:17N 22°05' E 113°53'0 0.0
2014-Nov-16 05:05N 22°05' E 113°53'0 0.2
2014-Nov-16 04:12N 22°05' E 113°53'6 7.8
2014-Nov-16 03:28N 21°59' E 113°52'27312.5
2014-Nov-15 05:32N 23°52' E 118°23'  
2014-Nov-12 07:29N 34°48' E 119°40'1011.4
2014-Nov-12 06:33N 34°45' E 119°28'1 0.5
2014-Nov-12 05:31N 34°44' E 119°28'0 0.0
2014-Nov-12 04:31N 34°44' E 119°28'0 0.0
2014-Nov-12 03:31N 34°44' E 119°28'0 0.0
2014-Nov-12 02:31N 34°44' E 119°28'0 0.0
2014-Nov-12 01:31N 34°44' E 119°28'0 0.0
2014-Nov-12 00:31N 34°44' E 119°28'0 0.0
2014-Nov-11 23:31N 34°44' E 119°28'0 0.0
2014-Nov-11 22:31N 34°44' E 119°28'0 0.0
2014-Nov-11 21:31N 34°44' E 119°28'0 0.0
2014-Nov-11 20:31N 34°44' E 119°28'0 0.0
2014-Nov-11 19:31N 34°44' E 119°28'0 0.0
2014-Nov-11 18:31N 34°44' E 119°28'0 0.0
2014-Nov-11 17:31N 34°44' E 119°28'0 0.0
2014-Nov-11 16:31N 34°44' E 119°28'0 0.0
2014-Nov-11 15:31N 34°44' E 119°28'0 0.0
2014-Nov-11 14:31N 34°44' E 119°28'0 0.0
2014-Nov-11 13:31N 34°44' E 119°28'0 0.0
2014-Nov-11 12:31N 34°44' E 119°28'0 0.0
2014-Nov-11 11:31N 34°44' E 119°28'0 0.0
2014-Nov-11 10:31N 34°44' E 119°28'0 0.0
2014-Nov-11 09:31N 34°44' E 119°28'0 0.0
2014-Nov-11 08:31N 34°44' E 119°28'0 0.0
2014-Nov-11 07:31N 34°44' E 119°28'0 0.0
2014-Nov-11 06:31N 34°44' E 119°28'0 0.1
2014-Nov-11 05:33N 34°44' E 119°28'8 7.9
2014-Nov-11 04:33N 34°47' E 119°37'6 5.8
2014-Nov-11 03:32N 34°51' E 119°42'0 0.1
2014-Nov-11 01:31N 34°51' E 119°42'0 0.0
2014-Nov-11 00:31N 34°51' E 119°42'0 0.1
2014-Nov-10 22:25N 34°51' E 119°42'0 0.0
2014-Nov-10 21:31N 34°51' E 119°42'0 0.1
2014-Nov-10 20:19N 34°51' E 119°42'0 0.2
2014-Nov-10 19:31N 34°51' E 119°42'0 0.1
2014-Nov-10 18:31N 34°51' E 119°42'0 0.0
2014-Nov-10 17:25N 34°51' E 119°42'0 0.0
2014-Nov-10 16:31N 34°51' E 119°42'0 0.0
2014-Nov-10 15:31N 34°51' E 119°42'0 0.0
2014-Nov-10 14:07N 34°51' E 119°42'0 0.0
2014-Nov-10 13:31N 34°51' E 119°42'0 0.1
2014-Nov-10 12:31N 34°51' E 119°42'0 0.1
2014-Nov-10 11:25N 34°51' E 119°42'0 0.1
2014-Nov-10 10:31N 34°51' E 119°42'  

Dump ship's entire track history